Terminal Aerodrome Forecast
Issued by NWS

Current Version | Previous Version | Graphics & Text | Print | Product List | Glossary On
Versions: 1 2 3 4 5 6 7 8 9 10 11 12 13 14 15 16 17 18 19
000
FTUS41 KILN 222320
TAFLCK
TAF
KLCK 222320Z 2300/2324 20013KT P6SM BKN035 BKN200
     FM230200 19012KT P6SM VCSH BKN025 BKN035
      TEMPO 2306/2310 BKN008 OVC015
     FM231200 22014G20KT 5SM SHRA BR OVC015
      TEMPO 2314/2318 3SM +SHRA OVC010
     FM232200 23014KT P6SM VCSH SCT025 OVC100=

USA.gov is the U.S. government's official web portal to all federal, state and local government web resources and services.